KGPC

Putnam County Regional Airport

Greencastle, Indiana, USA
METAR KGPC 210415Z AUTO 00000KT 1 3/4SM BR OVC003 05/04 A3006 RMK AO2
Observed Flight Rules
Jan-21 @ 04:15 UTC (34 minutes ago) Instrument Flight Rules
Wind Visibility Clouds Conditions
Calm 1 3/4 miles
  • Overcast at 300' AGL
  • Mist
Temperatures Readings
Current 5°C / 41°F
Dewpoint 4°C / 39°F
Humidity 93%
Altimeter 30.06" Hg
Pressure 1018 hPa
Elevation 257
METAR KGPC 210415Z AUTO 00000KT 1 3/4SM BR OVC003 05/04 A3006 RMK AO2
Observed Flight Rules
Jan-21 @ 04:15 UTC
(34 minutes ago)
LIFR
Wind Visibility
Calm 1 3/4 miles
Clouds
  • Overcast at 300' AGL
Conditions
  • Mist
Temperature Dewpoint
5°C / 41°F 4°C / 39°F
Humidity Altimeter Pressure
93% 30.06" Hg 1018 hPa